Terminal Aerodrome Forecast
Issued by NWS

Home | Current Version | Previous Version | Text Only | Print | Product List | Glossary On
Versions: 1 2 3 4 5 6 7 8 9 10 11 12 13 14
000
FTUS45 KSLC 250540
TAF36U
TAF
K36U 250540Z 2506/2606 VRB06KT P6SM VCSH SCT045 BKN080
      TEMPO 2506/2507 3SM -SHRASN BKN025
     FM250900 33008KT 5SM -SHRASN SCT010 BKN025
     FM252300 33008KT P6SM VCSH BKN045=

USA.gov is the U.S. government's official web portal to all federal, state and local government web resources and services.